Time;durP1;ratioP1;P1;durP2;ratioP2;P2;SDS_P1;SDS_P2;PMS_P1;PMS_P2;Temp;Humidity;BMP_temperature;BMP_pressure;BME280_temperature;BME280_humidity;BME280_pressure;Samples;Min_cycle;Max_cycle;Signal;HPM_P1;HPM_P2
2022/07/09 00:01:08;;;;;;;0.52;0.30;;;;;;;;;;4984985;28;20074;-70
2022/07/09 00:03:37;;;;;;;1.60;0.85;;;;;;;;;;4979045;28;20855;-70
2022/07/09 00:06:09;;;;;;;0.10;0.10;;;;;;;;;;4985707;28;20113;-71
2022/07/09 00:08:37;;;;;;;0.60;0.60;;;;;;;;;;4981946;28;20054;-70
2022/07/09 00:11:09;;;;;;;0.10;0.10;;;;;;;;;;4985320;28;20077;-70
2022/07/09 00:13:37;;;;;;;0.10;0.10;;;;;;;;;;4989834;28;20089;-70
2022/07/09 00:16:08;;;;;;;0.20;0.20;;;;;;;;;;4985023;28;20077;-69
2022/07/09 00:18:38;;;;;;;0.13;0.13;;;;;;;;;;4983095;28;20046;-70
2022/07/09 00:21:09;;;;;;;0.10;0.10;;;;;;;;;;4984061;28;20144;-69
2022/07/09 00:23:38;;;;;;;0.17;0.17;;;;;;;;;;4987358;28;20046;-72
2022/07/09 00:26:06;;;;;;;0.45;0.45;;;;;;;;;;4990357;28;20132;-70
2022/07/09 00:28:35;;;;;;;0.28;0.28;;;;;;;;;;4990150;28;20043;-71
2022/07/09 00:31:06;;;;;;;0.50;0.22;;;;;;;;;;4988075;28;20073;-70
2022/07/09 00:33:35;;;;;;;0.00;0.00;;;;;;;;;;4986100;28;20164;-71
2022/07/09 00:36:07;;;;;;;0.22;0.22;;;;;;;;;;4990763;28;20122;-70
2022/07/09 00:38:36;;;;;;;0.28;0.10;;;;;;;;;;5006998;28;20136;-70
2022/07/09 00:41:07;;;;;;;1.17;0.52;;;;;;;;;;5007524;28;20490;-70
2022/07/09 00:43:36;;;;;;;0.30;0.10;;;;;;;;;;5007949;28;20121;-70
2022/07/09 00:46:07;;;;;;;0.50;0.50;;;;;;;;;;5009980;28;20073;-70
2022/07/09 00:48:35;;;;;;;0.10;0.10;;;;;;;;;;5007551;28;20413;-71
2022/07/09 00:51:08;;;;;;;0.00;0.00;;;;;;;;;;5004545;28;20172;-70
2022/07/09 00:53:37;;;;;;;0.00;0.00;;;;;;;;;;5007795;28;20521;-70
2022/07/09 00:56:09;;;;;;;0.20;0.20;;;;;;;;;;5004339;28;20133;-70
2022/07/09 00:58:37;;;;;;;0.10;0.10;;;;;;;;;;5007012;28;20125;-70
2022/07/09 01:01:09;;;;;;;0.10;0.10;;;;;;;;;;5005640;28;20073;-70
2022/07/09 01:03:37;;;;;;;0.20;0.20;;;;;;;;;;5009807;28;20109;-70
2022/07/09 01:06:10;;;;;;;0.10;0.10;;;;;;;;;;5006193;28;20137;-70
2022/07/09 01:08:39;;;;;;;0.25;0.25;;;;;;;;;;5007145;28;20132;-70
2022/07/09 01:11:07;;;;;;;0.17;0.13;;;;;;;;;;5009988;28;20050;-70
2022/07/09 01:13:35;;;;;;;0.10;0.10;;;;;;;;;;5010095;28;20464;-70
2022/07/09 01:16:07;;;;;;;0.10;0.10;;;;;;;;;;5005831;28;20057;-70
2022/07/09 01:18:35;;;;;;;0.00;0.00;;;;;;;;;;5003019;28;20076;-70
2022/07/09 01:21:09;;;;;;;0.38;0.35;;;;;;;;;;5004685;28;20362;-70
2022/07/09 01:23:37;;;;;;;0.10;0.10;;;;;;;;;;5005884;28;20145;-70
2022/07/09 01:26:09;;;;;;;0.10;0.10;;;;;;;;;;5001514;28;20134;-70
2022/07/09 01:28:37;;;;;;;0.32;0.32;;;;;;;;;;5025312;28;20088;-70
2022/07/09 01:31:09;;;;;;;1.58;0.35;;;;;;;;;;5024962;28;20124;-70
2022/07/09 01:33:37;;;;;;;0.00;0.00;;;;;;;;;;5026541;28;20057;-71
2022/07/09 01:36:10;;;;;;;0.10;0.10;;;;;;;;;;5021935;28;20073;-70
2022/07/09 01:38:38;;;;;;;0.10;0.10;;;;;;;;;;5025120;28;20081;-70
2022/07/09 01:41:07;;;;;;;0.50;0.32;;;;;;;;;;5022899;28;20390;-70
2022/07/09 01:43:36;;;;;;;0.10;0.10;;;;;;;;;;5024836;28;20049;-70
2022/07/09 01:46:07;;;;;;;0.20;0.20;;;;;;;;;;5026747;28;20136;-72
2022/07/09 01:48:36;;;;;;;0.35;0.30;;;;;;;;;;5022520;28;20504;-71
2022/07/09 01:51:07;;;;;;;0.10;0.10;;;;;;;;;;5026291;28;20132;-70
2022/07/09 01:53:37;;;;;;;0.17;0.17;;;;;;;;;;5025253;28;20129;-70
2022/07/09 01:56:08;;;;;;;0.15;0.15;;;;;;;;;;5026048;28;20068;-70
2022/07/09 01:58:38;;;;;;;0.55;0.40;;;;;;;;;;5022162;28;20045;-71
2022/07/09 02:01:09;;;;;;;2.28;0.80;;;;;;;;;;5027164;28;20496;-70
2022/07/09 02:03:38;;;;;;;0.20;0.20;;;;;;;;;;5023222;28;20045;-70
2022/07/09 02:06:09;;;;;;;0.20;0.20;;;;;;;;;;5026220;28;20172;-70
2022/07/09 02:08:40;;;;;;;0.15;0.15;;;;;;;;;;5020678;28;20122;-71
2022/07/09 02:11:08;;;;;;;0.45;0.45;;;;;;;;;;5029623;28;20084;-70
2022/07/09 02:13:36;;;;;;;0.25;0.25;;;;;;;;;;5028996;28;20073;-70
2022/07/09 02:16:08;;;;;;;0.10;0.10;;;;;;;;;;5025947;28;20172;-70
2022/07/09 02:18:36;;;;;;;0.30;0.30;;;;;;;;;;5025431;28;20057;-72
2022/07/09 02:21:09;;;;;;;0.00;0.00;;;;;;;;;;5025068;28;20089;-70
2022/07/09 02:23:37;;;;;;;0.10;0.10;;;;;;;;;;5020559;28;20394;-70
2022/07/09 02:26:10;;;;;;;0.10;0.10;;;;;;;;;;5026286;28;20037;-70
2022/07/09 02:28:38;;;;;;;0.17;0.17;;;;;;;;;;5025633;28;20049;-70
2022/07/09 02:31:07;;;;;;;0.52;0.52;;;;;;;;;;5025888;28;20144;-70
2022/07/09 02:33:35;;;;;;;3.17;0.20;;;;;;;;;;5025847;28;20053;-70
2022/07/09 02:36:07;;;;;;;0.30;0.30;;;;;;;;;;5024574;28;20136;-70
2022/07/09 02:38:35;;;;;;;0.10;0.10;;;;;;;;;;5028498;28;20109;-70
2022/07/09 02:41:06;;;;;;;0.05;0.05;;;;;;;;;;5024000;28;20200;-71
2022/07/09 02:43:36;;;;;;;0.10;0.10;;;;;;;;;;5025677;28;20620;-70
2022/07/09 02:46:07;;;;;;;0.28;0.28;;;;;;;;;;5025945;28;20052;-70
2022/07/09 02:48:36;;;;;;;0.10;0.10;;;;;;;;;;5023983;28;20037;-70
2022/07/09 02:51:08;;;;;;;0.13;0.13;;;;;;;;;;5026634;28;20053;-70
2022/07/09 02:53:36;;;;;;;0.15;0.15;;;;;;;;;;5026767;28;20141;-70
2022/07/09 02:56:08;;;;;;;0.10;0.10;;;;;;;;;;5021840;28;20143;-70
2022/07/09 02:58:37;;;;;;;0.30;0.22;;;;;;;;;;5024857;28;20144;-70
2022/07/09 03:01:09;;;;;;;0.93;0.90;;;;;;;;;;5026030;28;20125;-71
2022/07/09 03:03:37;;;;;;;0.25;0.20;;;;;;;;;;5025989;28;20710;-70
2022/07/09 03:06:09;;;;;;;0.32;0.32;;;;;;;;;;5020775;28;20048;-70
2022/07/09 03:08:37;;;;;;;0.30;0.30;;;;;;;;;;5027222;28;20447;-70
2022/07/09 03:11:07;;;;;;;0.30;0.30;;;;;;;;;;5024657;28;20344;-70
2022/07/09 03:13:35;;;;;;;0.20;0.20;;;;;;;;;;5024622;28;20497;-70
2022/07/09 03:16:08;;;;;;;0.40;0.22;;;;;;;;;;5023320;28;20458;-70
2022/07/09 03:18:38;;;;;;;0.57;0.10;;;;;;;;;;5021725;28;20049;-70
2022/07/09 03:21:11;;;;;;;0.28;0.28;;;;;;;;;;5023921;28;20049;-70
2022/07/09 03:23:40;;;;;;;0.50;0.10;;;;;;;;;;5024247;28;20461;-70
2022/07/09 03:26:08;;;;;;;0.20;0.20;;;;;;;;;;5025501;28;20135;-70
2022/07/09 03:28:37;;;;;;;0.10;0.10;;;;;;;;;;5024324;28;20084;-70
2022/07/09 03:31:11;;;;;;;0.10;0.10;;;;;;;;;;5022908;28;20057;-72
2022/07/09 03:33:39;;;;;;;0.43;0.10;;;;;;;;;;5021946;28;20051;-70
2022/07/09 03:36:09;;;;;;;0.25;0.20;;;;;;;;;;5025188;28;20136;-70
2022/07/09 03:38:37;;;;;;;0.10;0.10;;;;;;;;;;5022520;28;20088;-71
2022/07/09 03:41:09;;;;;;;0.30;0.30;;;;;;;;;;5025370;28;20169;-70
2022/07/09 03:43:37;;;;;;;1.55;0.32;;;;;;;;;;5020787;28;20742;-71
2022/07/09 03:46:08;;;;;;;0.15;0.15;;;;;;;;;;5022486;28;20037;-70
2022/07/09 03:48:38;;;;;;;0.20;0.20;;;;;;;;;;5023526;28;20407;-72
2022/07/09 03:51:09;;;;;;;0.10;0.10;;;;;;;;;;5024558;28;20139;-70
2022/07/09 03:53:38;;;;;;;0.25;0.25;;;;;;;;;;5024446;28;20128;-70
2022/07/09 03:56:09;;;;;;;1.90;0.43;;;;;;;;;;5020981;28;20472;-70
2022/07/09 03:58:37;;;;;;;0.73;0.70;;;;;;;;;;5019847;28;20164;-70
2022/07/09 04:01:09;;;;;;;0.15;0.15;;;;;;;;;;5027309;28;20045;-70
2022/07/09 04:03:38;;;;;;;0.00;0.00;;;;;;;;;;5018518;28;20064;-70
2022/07/09 04:06:07;;;;;;;0.10;0.10;;;;;;;;;;5021888;28;20053;-70
2022/07/09 04:08:35;;;;;;;0.25;0.25;;;;;;;;;;5017479;28;20670;-70
2022/07/09 04:11:08;;;;;;;0.10;0.10;;;;;;;;;;5024460;28;20051;-70
2022/07/09 04:13:37;;;;;;;0.20;0.20;;;;;;;;;;5018796;28;20367;-70
2022/07/09 04:16:08;;;;;;;0.10;0.10;;;;;;;;;;5024310;28;20141;-70
2022/07/09 04:18:37;;;;;;;0.20;0.10;;;;;;;;;;5021276;28;20058;-70
2022/07/09 04:21:08;;;;;;;0.10;0.10;;;;;;;;;;5022402;28;20580;-70
2022/07/09 04:23:36;;;;;;;0.10;0.10;;;;;;;;;;5023039;28;20091;-70
2022/07/09 04:26:07;;;;;;;0.10;0.10;;;;;;;;;;5019759;28;20045;-70
2022/07/09 04:28:37;;;;;;;0.20;0.20;;;;;;;;;;5027503;28;20060;-70
2022/07/09 04:31:08;;;;;;;0.10;0.10;;;;;;;;;;5018393;28;20459;-70
2022/07/09 04:33:37;;;;;;;0.10;0.10;;;;;;;;;;5022444;28;20041;-70
2022/07/09 04:36:10;;;;;;;0.10;0.10;;;;;;;;;;5021366;28;20762;-70
2022/07/09 04:38:38;;;;;;;0.20;0.20;;;;;;;;;;5024303;28;20088;-71
2022/07/09 04:41:10;;;;;;;0.17;0.17;;;;;;;;;;5020411;28;20536;-70
2022/07/09 04:43:38;;;;;;;1.38;0.52;;;;;;;;;;5019827;28;20132;-70
2022/07/09 04:46:10;;;;;;;0.10;0.10;;;;;;;;;;5026069;28;20073;-70
2022/07/09 04:48:38;;;;;;;0.25;0.25;;;;;;;;;;5024033;28;20045;-70
2022/07/09 04:51:11;;;;;;;0.17;0.17;;;;;;;;;;5027062;28;20069;-72
2022/07/09 04:53:39;;;;;;;0.32;0.32;;;;;;;;;;5019684;28;20590;-71
2022/07/09 04:56:08;;;;;;;0.20;0.20;;;;;;;;;;5023195;28;20089;-70
2022/07/09 04:58:37;;;;;;;0.70;0.55;;;;;;;;;;5026324;28;20554;-70
2022/07/09 05:01:09;;;;;;;0.20;0.20;;;;;;;;;;5024336;28;20053;-70
2022/07/09 05:03:37;;;;;;;0.28;0.28;;;;;;;;;;5022641;28;20056;-70
2022/07/09 05:06:10;;;;;;;3.78;0.45;;;;;;;;;;5021263;28;20121;-70
2022/07/09 05:08:38;;;;;;;0.10;0.10;;;;;;;;;;5017388;28;20140;-70
2022/07/09 05:11:07;;;;;;;0.30;0.20;;;;;;;;;;5026941;28;20111;-70
2022/07/09 05:13:35;;;;;;;0.30;0.30;;;;;;;;;;5027114;28;20122;-69
2022/07/09 05:16:06;;;;;;;0.00;0.00;;;;;;;;;;5022973;28;20133;-69
2022/07/09 05:18:34;;;;;;;0.10;0.10;;;;;;;;;;5021098;28;20505;-69
2022/07/09 05:21:07;;;;;;;0.10;0.10;;;;;;;;;;5024538;28;20041;-70
2022/07/09 05:23:37;;;;;;;0.15;0.15;;;;;;;;;;5027883;28;20558;-70
2022/07/09 05:26:08;;;;;;;0.03;0.03;;;;;;;;;;5023677;28;20137;-70
2022/07/09 05:28:36;;;;;;;0.40;0.40;;;;;;;;;;5018203;28;20148;-70
2022/07/09 05:31:08;;;;;;;0.20;0.20;;;;;;;;;;5027307;28;20092;-69
2022/07/09 05:33:56;;;;;;;0.10;0.10;;;;;;;;;;5021823;28;20061;-70
2022/07/09 05:36:24;;;;;;;0.20;0.20;;;;;;;;;;5020128;28;20058;-69
2022/07/09 05:38:55;;;;;;;0.20;0.20;;;;;;;;;;5005418;28;20056;-70
2022/07/09 05:41:24;;;;;;;0.43;0.40;;;;;;;;;;5004548;28;20108;-70
2022/07/09 05:43:53;;;;;;;0.38;0.38;;;;;;;;;;5001723;28;20042;-71
2022/07/09 05:46:21;;;;;;;0.10;0.10;;;;;;;;;;5001531;28;20485;-69
2022/07/09 05:48:50;;;;;;;0.00;0.00;;;;;;;;;;5002662;28;20061;-70
2022/07/09 05:51:18;;;;;;;0.22;0.22;;;;;;;;;;5000152;28;20400;-71
2022/07/09 05:53:47;;;;;;;0.25;0.20;;;;;;;;;;5003759;28;20073;-70
2022/07/09 05:56:17;;;;;;;2.92;0.73;;;;;;;;;;5002117;28;20165;-70
2022/07/09 05:58:45;;;;;;;0.32;0.30;;;;;;;;;;5005194;28;20129;-71
2022/07/09 06:01:13;;;;;;;0.22;0.22;;;;;;;;;;5004023;28;20141;-70
2022/07/09 06:03:42;;;;;;;0.20;0.20;;;;;;;;;;5002343;28;20064;-69
2022/07/09 06:06:11;;;;;;;0.10;0.10;;;;;;;;;;5004971;28;20062;-69
2022/07/09 06:08:39;;;;;;;0.30;0.30;;;;;;;;;;5000992;28;20061;-70
2022/07/09 06:11:08;;;;;;;0.10;0.10;;;;;;;;;;5001017;28;20773;-70
2022/07/09 06:13:37;;;;;;;0.10;0.10;;;;;;;;;;5004486;28;20056;-70
2022/07/09 06:16:09;;;;;;;0.10;0.10;;;;;;;;;;4999795;28;20118;-71
2022/07/09 06:18:37;;;;;;;0.10;0.10;;;;;;;;;;5000177;28;20048;-70
2022/07/09 06:21:07;;;;;;;0.10;0.10;;;;;;;;;;5001336;28;20072;-69
2022/07/09 06:23:35;;;;;;;0.20;0.20;;;;;;;;;;5000724;28;20041;-70
2022/07/09 06:26:06;;;;;;;0.00;0.00;;;;;;;;;;4999151;28;20141;-69
2022/07/09 06:28:38;;;;;;;0.10;0.10;;;;;;;;;;4995952;28;20140;-70
2022/07/09 06:31:10;;;;;;;0.15;0.15;;;;;;;;;;4999246;28;20133;-71
2022/07/09 06:33:38;;;;;;;0.10;0.10;;;;;;;;;;5001068;28;20708;-69
2022/07/09 06:36:09;;;;;;;0.10;0.10;;;;;;;;;;5002151;28;20145;-70
2022/07/09 06:39:44;;;;;;;0.10;0.10;;;;;;;;;;5022182;28;20523;-69
2022/07/09 06:41:26;;;;;;;1.90;1.45;;;;;;;;;;5022963;28;20478;-70
2022/07/09 06:43:56;;;;;;;2.33;0.65;;;;;;;;;;5021475;28;20155;-69
2022/07/09 06:46:24;;;;;;;0.10;0.10;;;;;;;;;;5024678;28;20054;-70
2022/07/09 06:48:53;;;;;;;0.20;0.20;;;;;;;;;;5029103;28;20045;-71
2022/07/09 06:51:21;;;;;;;0.17;0.17;;;;;;;;;;5026818;28;20084;-70
2022/07/09 06:53:49;;;;;;;0.10;0.10;;;;;;;;;;5026474;28;20045;-69
2022/07/09 06:56:18;;;;;;;0.32;0.10;;;;;;;;;;5026642;28;20059;-69
2022/07/09 06:58:46;;;;;;;0.00;0.00;;;;;;;;;;5027215;28;20053;-71
2022/07/09 07:01:16;;;;;;;0.10;0.10;;;;;;;;;;5027335;28;20092;-70
2022/07/09 07:03:45;;;;;;;0.32;0.32;;;;;;;;;;5022641;28;20826;-69
2022/07/09 07:06:14;;;;;;;0.30;0.30;;;;;;;;;;5026069;28;20485;-70
2022/07/09 07:08:42;;;;;;;0.13;0.13;;;;;;;;;;5026234;28;20053;-69
2022/07/09 07:11:11;;;;;;;0.20;0.20;;;;;;;;;;5026828;28;20065;-71
2022/07/09 07:13:39;;;;;;;0.17;0.17;;;;;;;;;;5027640;28;20132;-69
2022/07/09 07:16:08;;;;;;;0.10;0.10;;;;;;;;;;5025974;28;20045;-69
2022/07/09 07:18:38;;;;;;;0.10;0.10;;;;;;;;;;5026865;28;20088;-70
2022/07/09 07:21:07;;;;;;;0.20;0.13;;;;;;;;;;5027774;28;20085;-70
2022/07/09 07:23:36;;;;;;;0.00;0.00;;;;;;;;;;5027229;28;20513;-70
2022/07/09 07:26:12;;;;;;;0.30;0.30;;;;;;;;;;5027461;28;20045;-69
2022/07/09 07:28:40;;;;;;;0.52;0.25;;;;;;;;;;5023472;28;20057;-69
2022/07/09 07:31:09;;;;;;;0.10;0.10;;;;;;;;;;5027326;28;20049;-69
2022/07/09 07:33:39;;;;;;;0.25;0.15;;;;;;;;;;5018893;28;20060;-70
2022/07/09 07:36:08;;;;;;;0.80;0.80;;;;;;;;;;5025265;28;20168;-70
2022/07/09 07:38:36;;;;;;;0.20;0.20;;;;;;;;;;5007828;28;20521;-69
2022/07/09 07:41:08;;;;;;;0.05;0.05;;;;;;;;;;5007836;28;20050;-69
2022/07/09 07:43:36;;;;;;;0.10;0.10;;;;;;;;;;5010418;28;20192;-69
2022/07/09 07:46:08;;;;;;;0.00;0.00;;;;;;;;;;5000210;28;20608;-69
2022/07/09 07:48:36;;;;;;;0.10;0.10;;;;;;;;;;5005721;28;20136;-69
2022/07/09 07:51:10;;;;;;;0.00;0.00;;;;;;;;;;5008283;28;20100;-70
2022/07/09 07:53:38;;;;;;;9.07;0.57;;;;;;;;;;5007363;28;20132;-72
2022/07/09 07:56:08;;;;;;;0.20;0.20;;;;;;;;;;4999856;28;20558;-69
2022/07/09 07:58:36;;;;;;;0.10;0.10;;;;;;;;;;4995446;28;20066;-70
2022/07/09 08:01:08;;;;;;;0.10;0.10;;;;;;;;;;5011014;28;20073;-70
2022/07/09 08:03:37;;;;;;;0.10;0.10;;;;;;;;;;5006192;28;20164;-69
2022/07/09 08:06:10;;;;;;;0.22;0.22;;;;;;;;;;5007466;28;20081;-69
2022/07/09 08:08:38;;;;;;;0.10;0.10;;;;;;;;;;5004477;28;20141;-70
2022/07/09 08:11:07;;;;;;;0.10;0.10;;;;;;;;;;5006714;28;20355;-69
2022/07/09 08:13:35;;;;;;;0.10;0.10;;;;;;;;;;5006570;28;20119;-69
2022/07/09 08:16:06;;;;;;;0.10;0.10;;;;;;;;;;5006195;28;20137;-70
2022/07/09 08:18:35;;;;;;;0.08;0.08;;;;;;;;;;5005696;28;20057;-70
2022/07/09 08:21:07;;;;;;;0.00;0.00;;;;;;;;;;4994218;28;20050;-69
2022/07/09 08:23:51;;;;;;;0.10;0.10;;;;;;;;;;5005109;28;20049;-69
2022/07/09 08:26:20;;;;;;;0.00;0.00;;;;;;;;;;4986880;28;20062;-69
2022/07/09 08:28:48;;;;;;;0.03;0.03;;;;;;;;;;4997284;28;20305;-71
2022/07/09 08:31:16;;;;;;;0.10;0.10;;;;;;;;;;5001329;28;20061;-70
2022/07/09 08:33:45;;;;;;;0.20;0.20;;;;;;;;;;4995103;28;20096;-71
2022/07/09 08:36:13;;;;;;;0.00;0.00;;;;;;;;;;4997578;28;20123;-70
2022/07/09 08:38:43;;;;;;;0.10;0.10;;;;;;;;;;5022325;28;20056;-71
2022/07/09 08:41:12;;;;;;;0.10;0.10;;;;;;;;;;5021260;28;20112;-69
2022/07/09 08:43:40;;;;;;;0.22;0.22;;;;;;;;;;5020421;28;20488;-70
2022/07/09 08:46:09;;;;;;;0.10;0.10;;;;;;;;;;5026004;28;20049;-69
2022/07/09 08:48:38;;;;;;;0.08;0.08;;;;;;;;;;5028347;28;20063;-69
2022/07/09 08:51:07;;;;;;;0.10;0.10;;;;;;;;;;5030443;28;20049;-70
2022/07/09 08:53:35;;;;;;;0.10;0.10;;;;;;;;;;5025862;28;20041;-69
2022/07/09 08:56:08;;;;;;;0.30;0.17;;;;;;;;;;5027774;28;20720;-68
2022/07/09 08:58:36;;;;;;;0.15;0.08;;;;;;;;;;5024793;28;20138;-69
2022/07/09 09:01:09;;;;;;;0.20;0.10;;;;;;;;;;5027070;28;20050;-70
2022/07/09 09:03:38;;;;;;;0.00;0.00;;;;;;;;;;5023056;28;20362;-69
2022/07/09 09:06:10;;;;;;;0.10;0.10;;;;;;;;;;5020941;28;20046;-70
2022/07/09 09:08:40;;;;;;;0.00;0.00;;;;;;;;;;5031031;28;20045;-68
2022/07/09 09:11:14;;;;;;;0.20;0.20;;;;;;;;;;5026882;28;20055;-70
2022/07/09 09:13:43;;;;;;;0.15;0.15;;;;;;;;;;5025948;28;20073;-70
2022/07/09 09:16:12;;;;;;;0.30;0.30;;;;;;;;;;5026976;28;20511;-70
2022/07/09 09:18:42;;;;;;;0.00;0.00;;;;;;;;;;5025475;28;20045;-69
2022/07/09 09:21:11;;;;;;;0.15;0.15;;;;;;;;;;5026351;28;20132;-71
2022/07/09 09:23:41;;;;;;;0.10;0.10;;;;;;;;;;5024357;28;20117;-69
2022/07/09 09:26:11;;;;;;;0.10;0.10;;;;;;;;;;5027308;28;20170;-68
2022/07/09 09:28:50;;;;;;;0.10;0.10;;;;;;;;;;4988887;28;20428;-70
2022/07/09 09:31:22;;;;;;;0.00;0.00;;;;;;;;;;5003530;28;20061;-70
2022/07/09 09:33:51;;;;;;;0.20;0.20;;;;;;;;;;5001668;28;20657;-69
2022/07/09 09:36:29;;;;;;;0.00;0.00;;;;;;;;;;4997672;28;20149;-69
2022/07/09 09:39:08;;;;;;;0.05;0.05;;;;;;;;;;5007688;28;20053;-70
2022/07/09 09:41:38;;;;;;;0.00;0.00;;;;;;;;;;4998247;28;20056;-69
2022/07/09 09:44:09;;;;;;;0.00;0.00;;;;;;;;;;5004170;28;20064;-69
2022/07/09 09:46:38;;;;;;;0.00;0.00;;;;;;;;;;4997301;28;20069;-69
2022/07/09 09:49:08;;;;;;;0.95;0.17;;;;;;;;;;4998221;28;20153;-69
2022/07/09 09:51:39;;;;;;;0.43;0.28;;;;;;;;;;5000024;28;20683;-69
2022/07/09 09:54:08;;;;;;;0.00;0.00;;;;;;;;;;5004730;28;20177;-70
2022/07/09 09:56:39;;;;;;;0.00;0.00;;;;;;;;;;5002140;28;20136;-69
2022/07/09 09:59:08;;;;;;;1.60;0.50;;;;;;;;;;5006242;28;20132;-69
2022/07/09 10:01:36;;;;;;;0.43;0.43;;;;;;;;;;5022480;28;20353;-69
2022/07/09 10:04:05;;;;;;;0.00;0.00;;;;;;;;;;5022113;28;20077;-70
2022/07/09 10:06:34;;;;;;;0.10;0.00;;;;;;;;;;5024616;28;20505;-70
2022/07/09 10:09:03;;;;;;;0.00;0.00;;;;;;;;;;5020753;28;20401;-70
2022/07/09 10:11:41;;;;;;;0.00;0.00;;;;;;;;;;5020069;28;20045;-70
2022/07/09 10:14:09;;;;;;;0.08;0.08;;;;;;;;;;5024630;28;20056;-70
2022/07/09 10:16:38;;;;;;;0.08;0.03;;;;;;;;;;5027642;28;20419;-70
2022/07/09 10:19:07;;;;;;;0.15;0.15;;;;;;;;;;5022029;28;20049;-69
2022/07/09 10:21:36;;;;;;;0.00;0.00;;;;;;;;;;5022257;28;20148;-68
2022/07/09 10:24:05;;;;;;;2.15;0.75;;;;;;;;;;5023431;28;20421;-70
2022/07/09 10:26:47;;;;;;;0.00;0.00;;;;;;;;;;5024119;28;20041;-70
2022/07/09 10:29:19;;;;;;;0.17;0.17;;;;;;;;;;5021571;28;20085;-69
2022/07/09 10:31:48;;;;;;;0.10;0.10;;;;;;;;;;5023133;28;20151;-70
2022/07/09 10:34:31;;;;;;;0.10;0.10;;;;;;;;;;5025823;28;20128;-70
2022/07/09 10:37:00;;;;;;;0.00;0.00;;;;;;;;;;5002888;28;20062;-70
2022/07/09 10:39:29;;;;;;;0.08;0.08;;;;;;;;;;4989052;28;20081;-70
2022/07/09 10:42:03;;;;;;;0.00;0.00;;;;;;;;;;4981983;28;20125;-69
2022/07/09 10:44:35;;;;;;;0.03;0.00;;;;;;;;;;4980583;28;20065;-69
2022/07/09 10:47:04;;;;;;;0.55;0.30;;;;;;;;;;4980835;28;20051;-70
2022/07/09 10:49:35;;;;;;;0.00;0.00;;;;;;;;;;4981945;28;20069;-69
2022/07/09 10:52:04;;;;;;;0.20;0.20;;;;;;;;;;4985004;28;20124;-69
2022/07/09 10:54:34;;;;;;;0.03;0.03;;;;;;;;;;4984827;28;20050;-69
2022/07/09 10:57:04;;;;;;;0.00;0.00;;;;;;;;;;4986320;28;20682;-69
2022/07/09 10:59:33;;;;;;;0.20;0.17;;;;;;;;;;4985636;28;20085;-72
2022/07/09 11:02:01;;;;;;;0.17;0.10;;;;;;;;;;4982323;28;20042;-70
2022/07/09 11:04:30;;;;;;;0.20;0.20;;;;;;;;;;4980225;28;20050;-70
2022/07/09 11:07:00;;;;;;;0.00;0.00;;;;;;;;;;4985566;28;20092;-69
2022/07/09 11:09:30;;;;;;;0.00;0.00;;;;;;;;;;4984527;28;20077;-69
2022/07/09 11:11:58;;;;;;;0.00;0.00;;;;;;;;;;4990700;28;20042;-71
2022/07/09 11:14:28;;;;;;;0.10;0.00;;;;;;;;;;4988773;28;20141;-70
2022/07/09 11:16:58;;;;;;;0.00;0.00;;;;;;;;;;4988467;28;20525;-69
2022/07/09 11:19:27;;;;;;;0.05;0.05;;;;;;;;;;4988040;28;20053;-68
2022/07/09 11:22:02;;;;;;;0.03;0.03;;;;;;;;;;4984716;28;20170;-69
2022/07/09 11:24:31;;;;;;;0.00;0.00;;;;;;;;;;4983636;28;20704;-69
2022/07/09 11:27:03;;;;;;;0.00;0.00;;;;;;;;;;4982862;28;20495;-70
2022/07/09 11:29:33;;;;;;;0.20;0.10;;;;;;;;;;4989891;28;20533;-69
2022/07/09 11:32:01;;;;;;;0.10;0.10;;;;;;;;;;4983729;28;20046;-69
2022/07/09 11:34:30;;;;;;;0.08;0.08;;;;;;;;;;4985489;28;20157;-69
2022/07/09 11:36:59;;;;;;;0.10;0.10;;;;;;;;;;4990938;28;20489;-69
2022/07/09 11:39:29;;;;;;;0.00;0.00;;;;;;;;;;5005377;28;20089;-69
2022/07/09 11:41:58;;;;;;;0.55;0.45;;;;;;;;;;5005335;28;20512;-69
2022/07/09 11:44:27;;;;;;;0.00;0.00;;;;;;;;;;5003550;28;20045;-68
2022/07/09 11:47:07;;;;;;;0.00;0.00;;;;;;;;;;5012900;28;20138;-69
2022/07/09 11:49:37;;;;;;;0.28;0.20;;;;;;;;;;5007690;28;20527;-68
2022/07/09 11:52:05;;;;;;;0.08;0.08;;;;;;;;;;5005231;28;20137;-69
2022/07/09 11:54:34;;;;;;;0.00;0.00;;;;;;;;;;5007504;28;20133;-69
2022/07/09 11:57:02;;;;;;;0.00;0.00;;;;;;;;;;5007155;28;20132;-68
2022/07/09 11:59:33;;;;;;;3.47;1.13;;;;;;;;;;5024881;28;20052;-69
2022/07/09 12:02:03;;;;;;;0.10;0.10;;;;;;;;;;5023761;28;20084;-68
2022/07/09 12:04:33;;;;;;;0.00;0.00;;;;;;;;;;5027342;28;20100;-69
2022/07/09 12:07:01;;;;;;;0.00;0.00;;;;;;;;;;5024159;28;20076;-69
2022/07/09 12:09:31;;;;;;;0.00;0.00;;;;;;;;;;5025412;28;20048;-70
2022/07/09 12:12:00;;;;;;;0.13;0.13;;;;;;;;;;5026908;28;20073;-69
2022/07/09 12:14:28;;;;;;;0.47;0.47;;;;;;;;;;5026372;28;20317;-69
2022/07/09 12:16:58;;;;;;;0.00;0.00;;;;;;;;;;5021476;28;20468;-70
2022/07/09 12:19:26;;;;;;;0.00;0.00;;;;;;;;;;5018716;28;20562;-69
2022/07/09 12:21:56;;;;;;;0.30;0.30;;;;;;;;;;5023757;28;20144;-68
2022/07/09 12:24:26;;;;;;;0.00;0.00;;;;;;;;;;5024711;28;20906;-68
2022/07/09 12:26:55;;;;;;;0.10;0.10;;;;;;;;;;5022487;28;20156;-69
2022/07/09 12:29:43;;;;;;;0.10;0.10;;;;;;;;;;5025044;28;20060;-68
2022/07/09 12:32:12;;;;;;;0.00;0.00;;;;;;;;;;5021587;28;20123;-67
2022/07/09 12:34:41;;;;;;;0.00;0.00;;;;;;;;;;5024297;28;20049;-69
2022/07/09 12:37:11;;;;;;;0.10;0.10;;;;;;;;;;5024876;28;20042;-68
2022/07/09 12:39:39;;;;;;;0.30;0.30;;;;;;;;;;5022898;28;20088;-70
2022/07/09 12:42:08;;;;;;;0.15;0.05;;;;;;;;;;5023477;28;21085;-68
2022/07/09 12:44:37;;;;;;;0.00;0.00;;;;;;;;;;5021667;28;20256;-68
2022/07/09 12:47:05;;;;;;;0.00;0.00;;;;;;;;;;5023993;28;20044;-68
2022/07/09 12:49:34;;;;;;;0.05;0.05;;;;;;;;;;5022982;28;20488;-68
2022/07/09 12:52:02;;;;;;;0.00;0.00;;;;;;;;;;5023586;28;20107;-67
2022/07/09 12:54:32;;;;;;;0.00;0.00;;;;;;;;;;5025359;28;20125;-68
2022/07/09 12:57:00;;;;;;;0.00;0.00;;;;;;;;;;5022089;28;20471;-68
2022/07/09 12:59:37;;;;;;;0.00;0.00;;;;;;;;;;5026827;28;20057;-68
2022/07/09 13:02:06;;;;;;;0.00;0.00;;;;;;;;;;5022398;28;20052;-68
2022/07/09 13:04:35;;;;;;;0.20;0.20;;;;;;;;;;5024338;28;20053;-68
2022/07/09 13:07:03;;;;;;;0.10;0.05;;;;;;;;;;5021782;28;20140;-67
2022/07/09 13:09:34;;;;;;;0.00;0.00;;;;;;;;;;5024582;28;20085;-68
2022/07/09 13:12:02;;;;;;;0.00;0.00;;;;;;;;;;5017388;28;20424;-68
2022/07/09 13:14:30;;;;;;;0.28;0.15;;;;;;;;;;5018303;28;20045;-69
2022/07/09 13:16:59;;;;;;;0.10;0.10;;;;;;;;;;5015844;28;20057;-68
2022/07/09 13:19:48;;;;;;;0.00;0.00;;;;;;;;;;5019008;28;20056;-69
2022/07/09 13:22:17;;;;;;;0.00;0.00;;;;;;;;;;5018975;28;20122;-68
2022/07/09 13:24:46;;;;;;;0.00;0.00;;;;;;;;;;5020402;28;20049;-67
2022/07/09 13:27:18;;;;;;;0.00;0.00;;;;;;;;;;5019300;28;20048;-67
2022/07/09 13:29:47;;;;;;;0.00;0.00;;;;;;;;;;5016100;28;20132;-68
2022/07/09 13:32:15;;;;;;;0.20;0.20;;;;;;;;;;5017505;28;20038;-68
2022/07/09 13:34:50;;;;;;;0.08;0.00;;;;;;;;;;5014634;28;20127;-68
2022/07/09 13:37:18;;;;;;;0.47;0.47;;;;;;;;;;5018347;28;20072;-69
2022/07/09 13:39:48;;;;;;;0.13;0.08;;;;;;;;;;5020196;28;20052;-68
2022/07/09 13:42:17;;;;;;;0.08;0.08;;;;;;;;;;5016084;28;20077;-68
2022/07/09 13:44:45;;;;;;;0.00;0.00;;;;;;;;;;5020141;28;20053;-68
2022/07/09 13:47:14;;;;;;;0.08;0.08;;;;;;;;;;5020260;28;20125;-67
2022/07/09 13:49:42;;;;;;;0.00;0.00;;;;;;;;;;5016425;28;20049;-67
2022/07/09 13:52:11;;;;;;;0.55;0.45;;;;;;;;;;5014356;28;20485;-68
2022/07/09 13:54:39;;;;;;;0.00;0.00;;;;;;;;;;5017127;28;20133;-68
2022/07/09 13:57:09;;;;;;;0.00;0.00;;;;;;;;;;5017926;28;20380;-68
2022/07/09 13:59:37;;;;;;;0.00;0.00;;;;;;;;;;5022355;28;20084;-68
2022/07/09 14:02:06;;;;;;;0.20;0.20;;;;;;;;;;5019190;28;20532;-68
2022/07/09 14:04:35;;;;;;;0.08;0.08;;;;;;;;;;5018146;28;20052;-68
2022/07/09 14:07:04;;;;;;;0.30;0.30;;;;;;;;;;5021426;28;20058;-68
2022/07/09 14:09:33;;;;;;;0.00;0.00;;;;;;;;;;5017365;28;20099;-68
2022/07/09 14:12:01;;;;;;;0.00;0.00;;;;;;;;;;5018617;28;20128;-69
2022/07/09 14:14:31;;;;;;;0.43;0.15;;;;;;;;;;5019247;28;20049;-69
2022/07/09 14:17:01;;;;;;;0.17;0.17;;;;;;;;;;5017804;28;20626;-68
2022/07/09 14:19:30;;;;;;;0.10;0.10;;;;;;;;;;5021491;28;20533;-67
2022/07/09 14:21:58;;;;;;;0.00;0.00;;;;;;;;;;5020406;28;20568;-68
2022/07/09 14:24:26;;;;;;;0.20;0.08;;;;;;;;;;5020735;28;20053;-68
2022/07/09 14:26:55;;;;;;;0.10;0.10;;;;;;;;;;5021555;28;20049;-69
2022/07/09 14:29:24;;;;;;;0.00;0.00;;;;;;;;;;5015429;28;20057;-70
2022/07/09 14:31:53;;;;;;;0.10;0.10;;;;;;;;;;5016591;28;20144;-72
2022/07/09 14:34:22;;;;;;;0.10;0.10;;;;;;;;;;5014151;28;20668;-71
2022/07/09 14:36:51;;;;;;;0.00;0.00;;;;;;;;;;5018839;28;20132;-71
2022/07/09 14:39:21;;;;;;;0.00;0.00;;;;;;;;;;5020581;28;20141;-71
2022/07/09 14:41:49;;;;;;;0.10;0.10;;;;;;;;;;5018014;28;20116;-71
2022/07/09 14:44:18;;;;;;;0.40;0.40;;;;;;;;;;5023044;28;20710;-73
2022/07/09 14:46:46;;;;;;;0.05;0.05;;;;;;;;;;5023379;28;20374;-71
2022/07/09 14:49:17;;;;;;;0.03;0.03;;;;;;;;;;5022073;28;20049;-71
2022/07/09 14:51:45;;;;;;;0.03;0.03;;;;;;;;;;5019735;28;20557;-71
2022/07/09 14:54:13;;;;;;;0.68;0.57;;;;;;;;;;5020948;28;20049;-71
2022/07/09 14:56:42;;;;;;;0.10;0.10;;;;;;;;;;5019555;28;20056;-72
2022/07/09 14:59:12;;;;;;;0.30;0.30;;;;;;;;;;5017331;28;20796;-72